createdAt,value
2019-04-10T00:00:35.590Z,51.97
2019-04-10T00:04:37.488Z,59.73
2019-04-10T00:08:39.406Z,59.83
2019-04-10T00:12:42.287Z,51.10
2019-04-10T00:16:44.588Z,57.50
2019-04-10T00:20:46.969Z,49.80
2019-04-10T00:24:48.975Z,57.67
2019-04-10T00:28:51.918Z,53.73
2019-04-10T00:32:54.422Z,53.43
2019-04-10T00:36:57.485Z,55.37
2019-04-10T00:40:59.657Z,60.00
2019-04-10T00:45:03.906Z,59.57
2019-04-10T00:49:05.807Z,57.07
2019-04-10T00:53:08.540Z,59.67
2019-04-10T00:57:11.378Z,56.53
2019-04-10T01:01:13.878Z,59.37
2019-04-10T01:05:17.296Z,52.27
2019-04-10T01:09:20.176Z,55.47
2019-04-10T01:13:22.991Z,59.50
2019-04-10T01:17:24.887Z,58.57
2019-04-10T01:21:26.798Z,54.77
2019-04-10T01:25:28.699Z,62.13
2019-04-10T01:29:30.603Z,57.97
2019-04-10T01:33:32.561Z,61.83
2019-04-10T01:37:46.646Z,62.83
2019-04-10T01:41:38.041Z,59.57
2019-04-10T01:45:39.957Z,58.33
2019-04-10T01:49:41.998Z,61.03
2019-04-10T01:53:44.227Z,58.55
2019-04-10T01:57:46.400Z,63.77
2019-04-10T02:01:52.658Z,62.80
2019-04-10T02:05:54.781Z,61.80
2019-04-10T02:09:56.680Z,53.97
2019-04-10T02:13:58.592Z,59.47
2019-04-10T02:18:01.301Z,64.87
2019-04-10T02:22:04.334Z,70.20
2019-04-10T02:26:07.357Z,63.03
2019-04-10T02:30:14.673Z,53.40
2019-04-10T02:34:17.228Z,56.67
2019-04-10T02:38:35.729Z,57.83
2019-04-10T02:42:24.679Z,57.43
2019-04-10T02:46:26.941Z,63.63
2019-04-10T02:50:29.476Z,64.03
2019-04-10T02:54:33.402Z,55.90
2019-04-10T02:58:38.533Z,62.80
2019-04-10T03:02:41.573Z,59.73
2019-04-10T03:06:45.212Z,65.50
2019-04-10T03:10:50.580Z,67.53
2019-04-10T03:14:52.285Z,64.90
2019-04-10T03:18:54.917Z,62.97
2019-04-10T03:22:56.957Z,60.53
2019-04-10T03:26:58.892Z,62.93
2019-04-10T03:31:02.944Z,63.73
2019-04-10T03:35:14.472Z,59.93
2019-04-10T03:39:17.393Z,68.02
2019-04-10T03:43:19.537Z,60.33
2019-04-10T03:47:21.422Z,61.47
2019-04-10T03:51:23.318Z,56.37
2019-04-10T03:55:25.245Z,50.33
2019-04-10T03:59:27.145Z,66.33
2019-04-10T04:03:29.066Z,63.77
2019-04-10T04:07:30.976Z,61.17
2019-04-10T04:11:33.526Z,53.67
2019-04-10T04:15:35.872Z,61.93
2019-04-10T04:19:38.706Z,58.43
2019-04-10T04:23:40.686Z,55.37
2019-04-10T04:27:42.680Z,57.78
2019-04-10T04:31:44.573Z,56.20
2019-04-10T04:35:47.395Z,63.90
2019-04-10T04:39:49.379Z,55.35
2019-04-10T04:43:51.286Z,66.43
2019-04-10T04:47:54.026Z,51.50
2019-04-10T04:51:55.986Z,57.57
2019-04-10T04:55:57.900Z,58.10
2019-04-10T04:59:59.813Z,56.77
2019-04-10T05:04:02.462Z,53.63
2019-04-10T05:08:07.373Z,53.50
2019-04-10T05:12:09.641Z,49.80
2019-04-10T05:16:11.542Z,57.10
2019-04-10T05:20:14.762Z,60.20
2019-04-10T05:24:17.776Z,57.00
2019-04-10T05:28:20.421Z,58.37
2019-04-10T05:32:23.359Z,60.50
2019-04-10T05:36:26.585Z,56.83
2019-04-10T05:40:28.633Z,61.03
2019-04-10T05:44:44.372Z,61.33
2019-04-10T05:48:49.010Z,55.20
2019-04-10T05:52:51.800Z,59.93
2019-04-10T05:56:54.682Z,54.80
2019-04-10T06:00:58.862Z,56.87
2019-04-10T06:05:00.904Z,52.03
2019-04-10T06:09:04.763Z,69.40
2019-04-10T06:13:06.852Z,62.97
2019-04-10T06:17:09.971Z,57.43
2019-04-10T06:21:12.581Z,56.70
2019-04-10T06:25:16.014Z,59.37
2019-04-10T06:29:19.209Z,55.67
2019-04-10T06:33:22.233Z,52.57
2019-04-10T06:37:24.259Z,57.23
2019-04-10T06:41:26.429Z,59.75
2019-04-10T06:45:28.465Z,60.90
2019-04-10T06:49:31.117Z,57.07
2019-04-10T06:53:33.237Z,62.20
2019-04-10T06:57:48.146Z,64.03
2019-04-10T07:01:44.329Z,57.57
2019-04-10T07:05:56.385Z,64.17
2019-04-10T07:09:47.443Z,59.55
2019-04-10T07:13:51.519Z,64.13
2019-04-10T07:17:55.456Z,63.90
2019-04-10T07:22:00.339Z,57.77
2019-04-10T07:26:02.090Z,59.67
2019-04-10T07:30:09.734Z,61.33
2019-04-10T07:34:11.906Z,56.47
2019-04-10T07:38:15.911Z,62.53
2019-04-10T07:42:26.657Z,63.57
2019-04-10T07:46:21.825Z,63.07
2019-04-10T07:50:24.760Z,68.43
2019-04-10T07:54:26.811Z,58.20
2019-04-10T07:58:29.212Z,63.57
2019-04-10T08:02:31.751Z,54.90
2019-04-10T08:06:33.748Z,63.73
2019-04-10T08:10:36.798Z,64.97
2019-04-10T08:14:39.717Z,60.50
2019-04-10T08:18:41.842Z,61.60
2019-04-10T08:22:44.792Z,61.00
2019-04-10T08:26:47.248Z,60.88
2019-04-10T08:30:50.391Z,59.25
2019-04-10T08:34:52.663Z,59.53
2019-04-10T08:38:55.010Z,57.90
2019-04-10T08:42:57.811Z,54.77
2019-04-10T08:47:00.195Z,60.30
2019-04-10T08:51:03.111Z,63.70
2019-04-10T08:55:06.507Z,56.27
2019-04-10T08:59:27.825Z,58.83
2019-04-10T09:03:30.917Z,57.57
2019-04-10T09:07:33.870Z,66.57
2019-04-10T09:11:37.599Z,55.97
2019-04-10T09:15:40.282Z,58.67
2019-04-10T09:19:42.354Z,64.13
2019-04-10T09:23:50.272Z,57.40
2019-04-10T09:27:47.874Z,66.97
2019-04-10T09:31:50.308Z,62.73
2019-04-10T09:35:52.966Z,60.88
2019-04-10T09:39:56.473Z,63.50
2019-04-10T09:43:58.634Z,57.90
2019-04-10T09:48:00.576Z,63.23
2019-04-10T09:52:02.743Z,63.60
2019-04-10T09:56:05.309Z,60.77
2019-04-10T10:00:10.497Z,56.45
2019-04-10T10:04:15.350Z,59.13
2019-04-10T10:08:18.335Z,62.70
2019-04-10T10:12:20.381Z,57.47
2019-04-10T10:16:23.854Z,58.43
2019-04-10T10:20:26.161Z,62.53
2019-04-10T10:24:28.873Z,60.27
2019-04-10T10:28:31.183Z,56.87
2019-04-10T10:32:33.129Z,53.20
2019-04-10T10:36:41.309Z,57.73
2019-04-10T10:40:39.433Z,57.47
2019-04-10T10:44:42.459Z,62.20
2019-04-10T10:48:44.426Z,54.48
2019-04-10T10:52:46.336Z,62.93
2019-04-10T10:56:48.803Z,58.90
2019-04-10T11:00:51.726Z,57.78
2019-04-10T11:04:53.942Z,55.13
2019-04-10T11:08:55.849Z,57.87
2019-04-10T11:12:58.483Z,58.63
2019-04-10T11:17:01.375Z,59.47
2019-04-10T11:21:08.001Z,60.90
2019-04-10T11:25:08.080Z,60.13
2019-04-10T11:29:10.157Z,58.33
2019-04-10T11:33:12.452Z,59.10
2019-04-10T11:37:24.119Z,62.03
2019-04-10T11:41:19.249Z,59.87
2019-04-10T11:45:23.031Z,61.00
2019-04-10T11:49:27.728Z,65.73
2019-04-10T11:53:28.861Z,59.67
2019-04-10T11:57:32.471Z,63.83
2019-04-10T12:01:36.363Z,53.27
2019-04-10T12:05:42.026Z,61.93
2019-04-10T12:13:48.273Z,59.13
2019-04-10T12:17:50.195Z,58.95
2019-04-10T12:21:52.112Z,53.60
2019-04-10T12:25:54.040Z,55.90
2019-04-10T12:29:57.019Z,62.57
2019-04-10T12:34:00.346Z,62.43
2019-04-10T12:38:07.016Z,68.27
2019-04-10T12:42:06.477Z,67.17
2019-04-10T12:46:08.628Z,59.57
2019-04-10T12:50:12.064Z,64.03
2019-04-10T12:54:14.242Z,56.07
2019-04-10T12:58:18.943Z,62.20
2019-04-10T13:02:20.592Z,66.40
2019-04-10T13:06:22.505Z,54.57
2019-04-10T13:10:31.688Z,60.40
2019-04-10T13:14:34.789Z,59.70
2019-04-10T13:18:38.538Z,60.30
2019-04-10T13:22:40.530Z,59.53
2019-04-10T13:26:42.885Z,63.30
2019-04-10T13:30:52.418Z,58.55
2019-04-10T13:34:49.310Z,56.23
2019-04-10T13:38:51.315Z,57.45
2019-04-10T13:42:53.723Z,58.00
2019-04-10T13:46:55.655Z,59.27
2019-04-10T13:50:57.621Z,45.57
2019-04-10T13:54:59.597Z,58.40
2019-04-10T13:59:01.586Z,60.53
2019-04-10T14:03:03.944Z,46.90
2019-04-10T14:07:07.468Z,52.77
2019-04-10T14:11:09.432Z,59.73
2019-04-10T14:15:12.169Z,58.47
2019-04-10T14:19:15.092Z,55.07
2019-04-10T14:23:18.661Z,49.90
2019-04-10T14:27:25.129Z,49.43
2019-04-10T14:31:32.168Z,53.00
2019-04-10T14:35:34.183Z,53.03
2019-04-10T14:39:37.591Z,56.33
2019-04-10T14:43:42.677Z,51.00
2019-04-10T14:47:44.484Z,53.75
2019-04-10T14:51:46.430Z,48.17
2019-04-10T14:55:49.296Z,48.10
2019-04-10T14:59:52.435Z,58.75
2019-04-10T15:03:54.983Z,52.00
2019-04-10T15:07:57.505Z,53.37
2019-04-10T15:11:59.437Z,58.43
2019-04-10T15:16:01.597Z,54.33
2019-04-10T15:20:04.914Z,48.33
2019-04-10T15:24:07.052Z,54.73
2019-04-10T15:28:08.965Z,52.90
2019-04-10T15:32:12.753Z,56.60
2019-04-10T15:36:17.891Z,51.33
2019-04-10T15:40:25.572Z,45.23
2019-04-10T15:44:25.902Z,46.30
2019-04-10T15:48:29.377Z,48.23
2019-04-10T15:52:31.421Z,43.90
2019-04-10T15:56:33.978Z,44.57
2019-04-10T16:00:37.059Z,44.20
2019-04-10T16:04:40.263Z,47.50
2019-04-10T16:08:42.701Z,45.50
2019-04-10T16:12:45.738Z,35.83
2019-04-10T16:16:48.667Z,40.90
2019-04-10T16:20:52.912Z,47.58
2019-04-10T16:24:55.663Z,47.13
2019-04-10T16:28:57.798Z,55.15
2019-04-10T16:33:00.830Z,54.03
2019-04-10T16:37:02.977Z,48.93
2019-04-10T16:41:04.957Z,47.63
2019-04-10T16:45:08.351Z,42.77
2019-04-10T16:49:10.646Z,49.97
2019-04-10T16:53:13.775Z,46.50
2019-04-10T16:57:18.505Z,47.20
2019-04-10T17:01:20.554Z,51.90
2019-04-10T17:05:22.702Z,46.90
2019-04-10T17:09:26.927Z,50.93
2019-04-10T17:13:28.880Z,49.20
2019-04-10T17:17:30.807Z,50.27
2019-04-10T17:21:32.736Z,47.17
2019-04-10T17:25:35.958Z,49.97
2019-04-10T17:29:38.933Z,33.63
2019-04-10T17:33:41.883Z,31.13
2019-04-10T17:37:43.907Z,30.03
2019-04-10T17:41:45.944Z,31.75
2019-04-10T17:45:48.928Z,26.40
2019-04-10T17:49:51.827Z,30.23
2019-04-10T17:53:53.863Z,27.90
2019-04-10T17:57:57.441Z,28.60
2019-04-10T18:02:01.697Z,30.63
2019-04-10T18:06:03.914Z,32.77
2019-04-10T18:10:08.541Z,29.80
2019-04-10T18:14:11.162Z,28.07
2019-04-10T18:18:13.692Z,30.20
2019-04-10T18:22:15.679Z,30.70
2019-04-10T18:26:20.371Z,31.47
2019-04-10T18:30:21.713Z,27.97
2019-04-10T18:34:24.818Z,31.47
2019-04-10T18:38:27.800Z,23.87
2019-04-10T18:42:30.824Z,23.67
2019-04-10T18:46:32.929Z,30.40
2019-04-10T18:50:34.870Z,27.67
2019-04-10T18:54:45.481Z,28.10
2019-04-10T18:58:56.259Z,25.70
2019-04-10T19:02:59.194Z,27.47
2019-04-10T19:11:21.220Z,28.03
2019-04-10T19:15:18.121Z,20.37
2019-04-10T19:19:20.953Z,21.97
2019-04-10T19:23:23.896Z,21.83
2019-04-10T19:27:26.964Z,22.20
2019-04-10T19:31:29.849Z,20.83
2019-04-10T19:35:31.899Z,18.90
2019-04-10T19:39:34.176Z,21.13
2019-04-10T19:43:36.435Z,20.57
2019-04-10T19:47:38.858Z,20.20
2019-04-10T19:51:40.901Z,17.83
2019-04-10T19:55:42.794Z,19.73
2019-04-10T19:59:44.706Z,16.97
2019-04-10T20:03:46.625Z,20.75
2019-04-10T20:07:49.217Z,20.30
2019-04-10T20:11:54.444Z,20.05
2019-04-10T20:15:55.896Z,23.97
2019-04-10T20:19:58.800Z,20.90
2019-04-10T20:24:02.688Z,21.57
2019-04-10T20:28:04.872Z,21.57
2019-04-10T20:32:07.865Z,22.07
2019-04-10T20:36:10.950Z,21.30
2019-04-10T20:40:13.904Z,20.33
2019-04-10T20:44:16.585Z,25.33
2019-04-10T20:48:18.619Z,19.90
2019-04-10T20:52:20.545Z,23.20
2019-04-10T20:56:22.448Z,22.90
2019-04-10T21:00:34.806Z,20.17
2019-04-10T21:04:37.817Z,16.44
2019-04-10T21:08:40.419Z,23.77
2019-04-10T21:12:44.138Z,19.07
2019-04-10T21:16:46.156Z,17.73
2019-04-10T21:20:49.138Z,24.85
2019-04-10T21:24:52.089Z,20.50
2019-04-10T21:28:54.162Z,19.53
2019-04-10T21:33:00.630Z,19.47
2019-04-10T21:37:03.714Z,17.63
2019-04-10T21:41:08.170Z,18.53
2019-04-10T21:45:09.626Z,18.50
2019-04-10T21:49:11.603Z,20.70
2019-04-10T21:53:14.213Z,21.30
2019-04-10T21:57:16.144Z,20.47
2019-04-10T22:01:18.973Z,14.53
2019-04-10T22:05:22.470Z,17.03
2019-04-10T22:09:45.228Z,19.67
2019-04-10T22:13:47.246Z,26.00
2019-04-10T22:17:50.568Z,21.82
2019-04-10T22:21:53.627Z,23.43
2019-04-10T22:25:56.336Z,19.02
2019-04-10T22:29:58.473Z,19.13
2019-04-10T22:34:00.827Z,22.17
2019-04-10T22:38:02.781Z,17.40
2019-04-10T22:42:06.087Z,21.40
2019-04-10T22:46:08.777Z,19.87
2019-04-10T22:50:10.746Z,18.23
2019-04-10T22:54:13.076Z,20.93
2019-04-10T22:58:15.051Z,17.80
2019-04-10T23:02:17.160Z,18.07
2019-04-10T23:06:19.145Z,18.57
2019-04-10T23:10:21.251Z,17.00
2019-04-10T23:14:23.191Z,19.33
2019-04-10T23:18:25.574Z,18.77
2019-04-10T23:22:27.474Z,16.13
2019-04-10T23:26:29.358Z,18.70
2019-04-10T23:30:31.283Z,17.33
2019-04-10T23:34:33.195Z,21.50
2019-04-10T23:38:35.444Z,20.47
2019-04-10T23:42:37.940Z,21.80
2019-04-10T23:46:39.883Z,17.93
2019-04-10T23:50:42.779Z,20.47
2019-04-10T23:54:45.754Z,20.37
2019-04-10T23:58:49.089Z,22.30
